sensor_id;sensor_type;location;lat;lon;timestamp;pressure;altitude;pressure_sealevel;temperature;humidity
68712;BME280;55690;51.566;19.198;2023-06-14T00:02:39;101737.75;;;16.48;93.89
68712;BME280;55690;51.566;19.198;2023-06-14T00:06:45;101738.87;;;16.68;93.39
68712;BME280;55690;51.566;19.198;2023-06-14T00:10:52;101742.40;;;16.37;93.08
68712;BME280;55690;51.566;19.198;2023-06-14T00:14:58;101736.36;;;16.76;92.85
68712;BME280;55690;51.566;19.198;2023-06-14T00:19:04;101732.13;;;16.72;93.18
68712;BME280;55690;51.566;19.198;2023-06-14T00:23:10;101731.71;;;16.88;91.66
68712;BME280;55690;51.566;19.198;2023-06-14T00:27:16;101735.37;;;16.77;93.06
68712;BME280;55690;51.566;19.198;2023-06-14T00:31:23;101728.26;;;16.75;92.37
68712;BME280;55690;51.566;19.198;2023-06-14T00:35:29;101738.84;;;17.11;91.55
68712;BME280;55690;51.566;19.198;2023-06-14T00:39:35;101733.10;;;16.82;92.72
68712;BME280;55690;51.566;19.198;2023-06-14T00:43:41;101726.25;;;17.09;90.56
68712;BME280;55690;51.566;19.198;2023-06-14T00:47:47;101724.41;;;17.30;90.01
68712;BME280;55690;51.566;19.198;2023-06-14T00:51:55;101726.33;;;17.39;89.63
68712;BME280;55690;51.566;19.198;2023-06-14T00:56:00;101721.11;;;17.15;90.82
68712;BME280;55690;51.566;19.198;2023-06-14T01:00:07;101722.10;;;17.35;89.43
68712;BME280;55690;51.566;19.198;2023-06-14T01:04:12;101719.93;;;17.29;89.69
68712;BME280;55690;51.566;19.198;2023-06-14T01:08:31;101717.23;;;17.39;89.30
68712;BME280;55690;51.566;19.198;2023-06-14T01:16:43;101714.83;;;16.92;91.46
68712;BME280;55690;51.566;19.198;2023-06-14T01:20:47;101705.20;;;16.98;90.88
68712;BME280;55690;51.566;19.198;2023-06-14T01:24:55;101702.64;;;17.17;90.11
68712;BME280;55690;51.566;19.198;2023-06-14T01:28:59;101714.88;;;17.13;90.21
68712;BME280;55690;51.566;19.198;2023-06-14T01:33:01;101714.88;;;17.13;89.98
68712;BME280;55690;51.566;19.198;2023-06-14T01:37:04;101705.64;;;17.35;88.41
68712;BME280;55690;51.566;19.198;2023-06-14T01:41:08;101709.38;;;17.34;88.60
68712;BME280;55690;51.566;19.198;2023-06-14T01:45:14;101706.57;;;17.04;89.00
68712;BME280;55690;51.566;19.198;2023-06-14T01:49:20;101706.95;;;16.56;90.72
68712;BME280;55690;51.566;19.198;2023-06-14T01:53:26;101706.18;;;16.76;90.57
68712;BME280;55690;51.566;19.198;2023-06-14T01:57:32;101698.92;;;16.21;92.13
68712;BME280;55690;51.566;19.198;2023-06-14T02:01:38;101705.26;;;16.44;91.94
68712;BME280;55690;51.566;19.198;2023-06-14T02:05:44;101717.23;;;15.64;94.47
68712;BME280;55690;51.566;19.198;2023-06-14T02:09:51;101712.51;;;15.67;94.31
68712;BME280;55690;51.566;19.198;2023-06-14T02:13:57;101718.04;;;15.43;94.63
68712;BME280;55690;51.566;19.198;2023-06-14T02:18:03;101715.87;;;15.70;94.19
68712;BME280;55690;51.566;19.198;2023-06-14T02:22:09;101714.40;;;15.88;93.29
68712;BME280;55690;51.566;19.198;2023-06-14T02:26:15;101713.88;;;16.06;92.21
68712;BME280;55690;51.566;19.198;2023-06-14T02:30:22;101723.23;;;15.81;93.60
68712;BME280;55690;51.566;19.198;2023-06-14T02:34:27;101723.49;;;15.89;93.66
68712;BME280;55690;51.566;19.198;2023-06-14T02:38:34;101722.82;;;15.63;93.98
68712;BME280;55690;51.566;19.198;2023-06-14T02:42:40;101725.35;;;15.31;95.94
68712;BME280;55690;51.566;19.198;2023-06-14T02:46:46;101722.20;;;15.13;96.07
68712;BME280;55690;51.566;19.198;2023-06-14T02:50:52;101718.64;;;15.35;95.35
68712;BME280;55690;51.566;19.198;2023-06-14T02:54:58;101720.47;;;15.70;93.44
68712;BME280;55690;51.566;19.198;2023-06-14T02:59:04;101724.15;;;15.46;95.04
68712;BME280;55690;51.566;19.198;2023-06-14T03:03:11;101720.86;;;15.76;92.34
68712;BME280;55690;51.566;19.198;2023-06-14T03:07:17;101719.60;;;15.69;93.40
68712;BME280;55690;51.566;19.198;2023-06-14T03:11:23;101715.27;;;16.00;92.50
68712;BME280;55690;51.566;19.198;2023-06-14T03:15:29;101715.50;;;16.08;91.52
68712;BME280;55690;51.566;19.198;2023-06-14T03:19:35;101719.98;;;16.09;91.56
68712;BME280;55690;51.566;19.198;2023-06-14T03:23:42;101726.46;;;16.08;91.68
68712;BME280;55690;51.566;19.198;2023-06-14T03:27:48;101722.98;;;16.17;91.17
68712;BME280;55690;51.566;19.198;2023-06-14T03:32:01;101719.48;;;16.04;92.44
68712;BME280;55690;51.566;19.198;2023-06-14T03:36:03;101731.79;;;15.65;94.26
68712;BME280;55690;51.566;19.198;2023-06-14T03:40:07;101727.33;;;16.09;92.92
68712;BME280;55690;51.566;19.198;2023-06-14T03:44:15;101729.71;;;15.91;93.47
68712;BME280;55690;51.566;19.198;2023-06-14T03:48:19;101737.05;;;15.79;93.80
68712;BME280;55690;51.566;19.198;2023-06-14T03:52:25;101744.23;;;15.69;94.20
68712;BME280;55690;51.566;19.198;2023-06-14T03:56:31;101741.17;;;15.85;93.62
68712;BME280;55690;51.566;19.198;2023-06-14T04:00:37;101749.38;;;15.85;93.73
68712;BME280;55690;51.566;19.198;2023-06-14T04:04:44;101743.85;;;15.62;94.61
68712;BME280;55690;51.566;19.198;2023-06-14T04:08:50;101746.77;;;16.17;92.95
68712;BME280;55690;51.566;19.198;2023-06-14T04:12:56;101748.63;;;16.05;93.16
68712;BME280;55690;51.566;19.198;2023-06-14T04:17:02;101751.37;;;16.16;92.59
68712;BME280;55690;51.566;19.198;2023-06-14T04:21:08;101755.11;;;16.15;92.70
68712;BME280;55690;51.566;19.198;2023-06-14T04:25:14;101757.73;;;16.28;92.20
68712;BME280;55690;51.566;19.198;2023-06-14T04:29:20;101751.88;;;16.33;92.04
68712;BME280;55690;51.566;19.198;2023-06-14T04:33:26;101754.07;;;16.50;91.27
68712;BME280;55690;51.566;19.198;2023-06-14T04:37:33;101756.20;;;16.46;91.92
68712;BME280;55690;51.566;19.198;2023-06-14T04:41:39;101746.23;;;16.68;90.36
68712;BME280;55690;51.566;19.198;2023-06-14T04:45:45;101743.74;;;16.65;90.46
68712;BME280;55690;51.566;19.198;2023-06-14T04:49:51;101744.34;;;16.79;90.37
68712;BME280;55690;51.566;19.198;2023-06-14T04:53:58;101741.88;;;16.65;90.36
68712;BME280;55690;51.566;19.198;2023-06-14T04:58:03;101743.59;;;17.09;89.73
68712;BME280;55690;51.566;19.198;2023-06-14T05:02:12;101740.48;;;16.71;91.33
68712;BME280;55690;51.566;19.198;2023-06-14T05:06:16;101737.34;;;16.86;89.86
68712;BME280;55690;51.566;19.198;2023-06-14T05:10:22;101736.17;;;16.46;91.42
68712;BME280;55690;51.566;19.198;2023-06-14T05:14:28;101744.69;;;16.86;90.39
68712;BME280;55690;51.566;19.198;2023-06-14T05:18:34;101747.10;;;16.68;90.57
68712;BME280;55690;51.566;19.198;2023-06-14T05:22:40;101742.84;;;16.75;90.88
68712;BME280;55690;51.566;19.198;2023-06-14T05:26:46;101731.16;;;17.26;89.18
68712;BME280;55690;51.566;19.198;2023-06-14T05:30:53;101738.48;;;16.61;90.04
68712;BME280;55690;51.566;19.198;2023-06-14T05:34:59;101733.70;;;17.18;89.02
68712;BME280;55690;51.566;19.198;2023-06-14T05:39:05;101740.47;;;16.82;90.57
68712;BME280;55690;51.566;19.198;2023-06-14T05:43:11;101742.73;;;16.54;91.84
68712;BME280;55690;51.566;19.198;2023-06-14T05:47:17;101742.35;;;16.70;91.00
68712;BME280;55690;51.566;19.198;2023-06-14T05:51:24;101738.84;;;16.79;90.29
68712;BME280;55690;51.566;19.198;2023-06-14T05:55:30;101747.34;;;16.76;90.30
68712;BME280;55690;51.566;19.198;2023-06-14T05:59:36;101743.33;;;16.80;90.15
68712;BME280;55690;51.566;19.198;2023-06-14T06:03:42;101747.34;;;17.08;88.84
68712;BME280;55690;51.566;19.198;2023-06-14T06:07:48;101743.07;;;17.36;88.02
68712;BME280;55690;51.566;19.198;2023-06-14T06:11:54;101746.97;;;17.54;87.74
68712;BME280;55690;51.566;19.198;2023-06-14T06:16:02;101736.45;;;17.59;87.73
68712;BME280;55690;51.566;19.198;2023-06-14T06:20:07;101744.41;;;17.74;86.78
68712;BME280;55690;51.566;19.198;2023-06-14T06:24:13;101748.02;;;18.05;85.40
68712;BME280;55690;51.566;19.198;2023-06-14T06:28:19;101744.44;;;18.54;84.49
68712;BME280;55690;51.566;19.198;2023-06-14T06:32:25;101746.69;;;18.79;84.01
68712;BME280;55690;51.566;19.198;2023-06-14T06:36:32;101752.94;;;18.41;84.76
68712;BME280;55690;51.566;19.198;2023-06-14T06:40:38;101764.72;;;18.22;84.24
68712;BME280;55690;51.566;19.198;2023-06-14T06:44:44;101759.54;;;17.68;85.35
68712;BME280;55690;51.566;19.198;2023-06-14T06:48:50;101773.51;;;17.86;84.81
68712;BME280;55690;51.566;19.198;2023-06-14T06:52:56;101765.93;;;17.99;84.37
68712;BME280;55690;51.566;19.198;2023-06-14T06:57:02;101764.30;;;18.17;83.48
68712;BME280;55690;51.566;19.198;2023-06-14T07:01:08;101762.16;;;18.61;83.38
68712;BME280;55690;51.566;19.198;2023-06-14T07:05:15;101766.84;;;18.89;81.93
68712;BME280;55690;51.566;19.198;2023-06-14T07:09:21;101762.67;;;19.05;81.92
68712;BME280;55690;51.566;19.198;2023-06-14T07:13:27;101760.34;;;19.00;80.85
68712;BME280;55690;51.566;19.198;2023-06-14T07:17:33;101768.17;;;19.63;80.90
68712;BME280;55690;51.566;19.198;2023-06-14T07:21:39;101768.46;;;19.40;80.47
68712;BME280;55690;51.566;19.198;2023-06-14T07:25:45;101764.84;;;19.59;79.05
68712;BME280;55690;51.566;19.198;2023-06-14T07:29:52;101743.38;;;20.09;77.75
68712;BME280;55690;51.566;19.198;2023-06-14T07:33:58;101775.63;;;19.99;78.03
68712;BME280;55690;51.566;19.198;2023-06-14T07:38:04;101771.20;;;19.69;77.63
68712;BME280;55690;51.566;19.198;2023-06-14T07:42:10;101773.98;;;20.16;77.30
68712;BME280;55690;51.566;19.198;2023-06-14T07:46:16;101786.23;;;19.94;77.27
68712;BME280;55690;51.566;19.198;2023-06-14T07:50:23;101781.86;;;20.01;76.63
68712;BME280;55690;51.566;19.198;2023-06-14T07:54:29;101783.98;;;19.41;77.43
68712;BME280;55690;51.566;19.198;2023-06-14T07:58:35;101783.66;;;19.83;77.64
68712;BME280;55690;51.566;19.198;2023-06-14T08:02:43;101789.17;;;19.83;77.25
68712;BME280;55690;51.566;19.198;2023-06-14T08:06:47;101778.89;;;19.75;77.46
68712;BME280;55690;51.566;19.198;2023-06-14T08:10:54;101771.34;;;19.77;77.81
68712;BME280;55690;51.566;19.198;2023-06-14T08:15:00;101781.22;;;19.60;77.39
68712;BME280;55690;51.566;19.198;2023-06-14T08:19:06;101777.13;;;19.84;77.53
68712;BME280;55690;51.566;19.198;2023-06-14T08:23:12;101780.54;;;20.05;77.10
68712;BME280;55690;51.566;19.198;2023-06-14T08:27:18;101786.59;;;19.43;78.12
68712;BME280;55690;51.566;19.198;2023-06-14T08:31:24;101781.63;;;19.85;76.51
68712;BME280;55690;51.566;19.198;2023-06-14T08:35:31;101777.95;;;19.94;76.38
68712;BME280;55690;51.566;19.198;2023-06-14T08:39:37;101779.95;;;20.11;76.78
68712;BME280;55690;51.566;19.198;2023-06-14T08:43:44;101781.43;;;19.96;77.03
68712;BME280;55690;51.566;19.198;2023-06-14T08:47:53;101779.16;;;19.82;77.26
68712;BME280;55690;51.566;19.198;2023-06-14T08:52:01;101778.90;;;19.46;78.24
68712;BME280;55690;51.566;19.198;2023-06-14T08:56:04;101781.23;;;19.51;78.17
68712;BME280;55690;51.566;19.198;2023-06-14T09:00:09;101786.15;;;19.38;78.36
68712;BME280;55690;51.566;19.198;2023-06-14T09:04:15;101781.50;;;19.28;79.24
68712;BME280;55690;51.566;19.198;2023-06-14T09:08:20;101780.31;;;19.50;78.57
68712;BME280;55690;51.566;19.198;2023-06-14T09:12:26;101791.34;;;19.12;79.72
68712;BME280;55690;51.566;19.198;2023-06-14T09:16:33;101787.02;;;19.48;78.87
68712;BME280;55690;51.566;19.198;2023-06-14T09:20:46;101796.16;;;19.58;78.65
68712;BME280;55690;51.566;19.198;2023-06-14T09:24:51;101794.83;;;19.91;77.90
68712;BME280;55690;51.566;19.198;2023-06-14T09:28:52;101803.16;;;20.18;77.57
68712;BME280;55690;51.566;19.198;2023-06-14T09:32:57;101795.53;;;20.40;77.18
68712;BME280;55690;51.566;19.198;2023-06-14T09:37:04;101799.87;;;19.96;76.78
68712;BME280;55690;51.566;19.198;2023-06-14T09:41:09;101788.53;;;19.99;77.75
68712;BME280;55690;51.566;19.198;2023-06-14T09:45:15;101791.30;;;19.99;77.67
68712;BME280;55690;51.566;19.198;2023-06-14T09:49:23;101790.20;;;19.82;77.89
68712;BME280;55690;51.566;19.198;2023-06-14T09:53:30;101790.36;;;19.42;78.52
68712;BME280;55690;51.566;19.198;2023-06-14T09:57:34;101787.88;;;19.29;78.68
68712;BME280;55690;51.566;19.198;2023-06-14T10:01:42;101794.27;;;19.78;77.98
68712;BME280;55690;51.566;19.198;2023-06-14T10:05:48;101790.85;;;20.03;77.78
68712;BME280;55690;51.566;19.198;2023-06-14T10:09:53;101792.90;;;20.48;76.64
68712;BME280;55690;51.566;19.198;2023-06-14T10:13:59;101794.52;;;20.41;76.96
68712;BME280;55690;51.566;19.198;2023-06-14T10:22:36;101787.83;;;20.43;76.54
68712;BME280;55690;51.566;19.198;2023-06-14T10:35:08;101786.83;;;20.72;76.44
68712;BME280;55690;51.566;19.198;2023-06-14T10:39:17;101791.78;;;20.68;76.52
68712;BME280;55690;51.566;19.198;2023-06-14T10:43:22;101782.23;;;20.25;77.21
68712;BME280;55690;51.566;19.198;2023-06-14T10:47:29;101783.52;;;20.31;77.33
68712;BME280;55690;51.566;19.198;2023-06-14T10:51:40;101793.18;;;19.98;80.97
68712;BME280;55690;51.566;19.198;2023-06-14T10:55:47;101792.38;;;19.69;83.73
68712;BME280;55690;51.566;19.198;2023-06-14T10:59:49;101789.41;;;20.46;82.65
68712;BME280;55690;51.566;19.198;2023-06-14T11:03:51;101786.23;;;20.41;81.89
68712;BME280;55690;51.566;19.198;2023-06-14T11:08:13;101771.84;;;20.37;80.30
68712;BME280;55690;51.566;19.198;2023-06-14T11:12:13;101777.61;;;20.53;80.93
68712;BME280;55690;51.566;19.198;2023-06-14T11:16:17;101777.16;;;20.58;81.66
68712;BME280;55690;51.566;19.198;2023-06-14T11:20:25;101776.34;;;20.48;80.64
68712;BME280;55690;51.566;19.198;2023-06-14T11:24:27;101769.99;;;20.38;79.81
68712;BME280;55690;51.566;19.198;2023-06-14T11:28:40;101767.09;;;20.39;80.11
68712;BME280;55690;51.566;19.198;2023-06-14T11:32:46;101772.48;;;20.31;78.34
68712;BME280;55690;51.566;19.198;2023-06-14T11:36:49;101784.77;;;20.37;78.32
68712;BME280;55690;51.566;19.198;2023-06-14T11:40:51;101775.02;;;20.52;78.86
68712;BME280;55690;51.566;19.198;2023-06-14T11:44:54;101764.76;;;20.89;78.61
68712;BME280;55690;51.566;19.198;2023-06-14T11:48:56;101765.11;;;21.57;77.95
68712;BME280;55690;51.566;19.198;2023-06-14T11:53:01;101754.34;;;22.24;74.37
68712;BME280;55690;51.566;19.198;2023-06-14T11:57:08;101743.40;;;22.91;71.91
68712;BME280;55690;51.566;19.198;2023-06-14T12:01:16;101743.40;;;23.07;70.56
68712;BME280;55690;51.566;19.198;2023-06-14T12:05:21;101735.95;;;23.07;71.01
68712;BME280;55690;51.566;19.198;2023-06-14T12:09:22;101738.97;;;22.72;69.13
68712;BME280;55690;51.566;19.198;2023-06-14T12:13:26;101738.45;;;22.00;70.64
68712;BME280;55690;51.566;19.198;2023-06-14T12:17:32;101724.23;;;22.63;70.58
68712;BME280;55690;51.566;19.198;2023-06-14T12:25:24;101726.52;;;22.76;71.48
68712;BME280;55690;51.566;19.198;2023-06-14T12:29:28;101741.70;;;22.21;74.60
68712;BME280;55690;51.566;19.198;2023-06-14T12:33:29;101769.38;;;20.44;81.73
68712;BME280;55690;51.566;19.198;2023-06-14T12:37:35;101771.80;;;20.19;86.41
68712;BME280;55690;51.566;19.198;2023-06-14T12:41:42;101767.84;;;20.32;86.69
68712;BME280;55690;51.566;19.198;2023-06-14T12:45:48;101755.13;;;20.48;85.88
68712;BME280;55690;51.566;19.198;2023-06-14T12:49:54;101747.41;;;20.79;85.53
68712;BME280;55690;51.566;19.198;2023-06-14T12:54:00;101739.70;;;20.55;85.35
68712;BME280;55690;51.566;19.198;2023-06-14T12:58:07;101736.68;;;20.76;87.68
68712;BME280;55690;51.566;19.198;2023-06-14T13:02:17;101735.41;;;20.88;87.96
68712;BME280;55690;51.566;19.198;2023-06-14T13:06:23;101728.15;;;21.58;87.67
68712;BME280;55690;51.566;19.198;2023-06-14T13:10:26;101725.30;;;22.28;86.40
68712;BME280;55690;51.566;19.198;2023-06-14T13:14:31;101735.42;;;21.85;86.15
68712;BME280;55690;51.566;19.198;2023-06-14T13:18:37;101730.43;;;21.63;82.31
68712;BME280;55690;51.566;19.198;2023-06-14T13:22:43;101738.57;;;21.65;84.74
68712;BME280;55690;51.566;19.198;2023-06-14T13:26:49;101733.61;;;21.50;85.15
68712;BME280;55690;51.566;19.198;2023-06-14T13:30:55;101730.63;;;21.70;84.33
68712;BME280;55690;51.566;19.198;2023-06-14T13:35:02;101727.50;;;21.90;82.89
68712;BME280;55690;51.566;19.198;2023-06-14T13:39:08;101727.92;;;21.78;84.74
68712;BME280;55690;51.566;19.198;2023-06-14T13:43:14;101725.77;;;21.89;86.87
68712;BME280;55690;51.566;19.198;2023-06-14T13:47:20;101728.53;;;22.49;88.47
68712;BME280;55690;51.566;19.198;2023-06-14T13:51:26;101733.45;;;21.52;88.13
68712;BME280;55690;51.566;19.198;2023-06-14T13:55:32;101729.56;;;21.63;83.88
68712;BME280;55690;51.566;19.198;2023-06-14T13:59:39;101727.98;;;21.86;84.30
68712;BME280;55690;51.566;19.198;2023-06-14T14:03:46;101725.42;;;21.67;84.37
68712;BME280;55690;51.566;19.198;2023-06-14T14:07:51;101731.13;;;21.21;86.59
68712;BME280;55690;51.566;19.198;2023-06-14T14:11:58;101722.64;;;21.05;87.31
68712;BME280;55690;51.566;19.198;2023-06-14T14:16:04;101705.45;;;21.11;86.54
68712;BME280;55690;51.566;19.198;2023-06-14T14:20:10;101727.34;;;20.59;89.37
68712;BME280;55690;51.566;19.198;2023-06-14T14:24:17;101748.44;;;20.78;88.21
68712;BME280;55690;51.566;19.198;2023-06-14T14:28:22;101758.36;;;20.89;88.75
68712;BME280;55690;51.566;19.198;2023-06-14T14:32:28;101772.87;;;20.36;89.47
68712;BME280;55690;51.566;19.198;2023-06-14T14:36:34;101772.34;;;20.33;88.81
68712;BME280;55690;51.566;19.198;2023-06-14T14:40:43;101771.69;;;20.48;90.93
68712;BME280;55690;51.566;19.198;2023-06-14T14:44:46;101768.93;;;20.76;90.86
68712;BME280;55690;51.566;19.198;2023-06-14T14:48:53;101780.81;;;20.12;90.11
68712;BME280;55690;51.566;19.198;2023-06-14T14:52:59;101783.83;;;19.52;89.96
68712;BME280;55690;51.566;19.198;2023-06-14T14:57:06;101787.44;;;19.82;89.67
68712;BME280;55690;51.566;19.198;2023-06-14T15:01:11;101792.24;;;19.70;90.93
68712;BME280;55690;51.566;19.198;2023-06-14T15:05:17;101784.66;;;19.91;90.79
68712;BME280;55690;51.566;19.198;2023-06-14T15:09:24;101784.76;;;20.00;89.51
68712;BME280;55690;51.566;19.198;2023-06-14T15:13:30;101784.04;;;19.98;90.22
68712;BME280;55690;51.566;19.198;2023-06-14T15:17:36;101775.70;;;19.70;90.03
68712;BME280;55690;51.566;19.198;2023-06-14T15:21:42;101783.24;;;19.68;89.32
68712;BME280;55690;51.566;19.198;2023-06-14T15:25:48;101776.58;;;19.61;89.28
68712;BME280;55690;51.566;19.198;2023-06-14T15:29:55;101778.03;;;19.46;87.91
68712;BME280;55690;51.566;19.198;2023-06-14T15:34:01;101770.05;;;19.43;89.53
68712;BME280;55690;51.566;19.198;2023-06-14T15:38:07;101764.54;;;19.62;90.11
68712;BME280;55690;51.566;19.198;2023-06-14T15:42:13;101760.32;;;19.77;88.19
68712;BME280;55690;51.566;19.198;2023-06-14T15:46:21;101760.02;;;19.80;88.79
68712;BME280;55690;51.566;19.198;2023-06-14T15:50:26;101769.88;;;19.83;89.81
68712;BME280;55690;51.566;19.198;2023-06-14T15:54:32;101772.05;;;19.89;90.99
68712;BME280;55690;51.566;19.198;2023-06-14T15:58:38;101772.93;;;19.80;89.48
68712;BME280;55690;51.566;19.198;2023-06-14T16:02:44;101775.85;;;19.69;86.66
68712;BME280;55690;51.566;19.198;2023-06-14T16:06:50;101766.41;;;19.81;88.10
68712;BME280;55690;51.566;19.198;2023-06-14T16:10:56;101769.02;;;19.82;88.21
68712;BME280;55690;51.566;19.198;2023-06-14T16:15:03;101764.84;;;19.49;90.39
68712;BME280;55690;51.566;19.198;2023-06-14T16:19:08;101759.91;;;19.63;91.07
68712;BME280;55690;51.566;19.198;2023-06-14T16:23:15;101759.02;;;19.72;91.14
68712;BME280;55690;51.566;19.198;2023-06-14T16:27:21;101767.15;;;19.64;91.85
68712;BME280;55690;51.566;19.198;2023-06-14T16:31:27;101774.69;;;19.23;93.20
68712;BME280;55690;51.566;19.198;2023-06-14T16:35:33;101773.09;;;19.20;94.20
68712;BME280;55690;51.566;19.198;2023-06-14T16:39:39;101775.13;;;19.47;92.07
68712;BME280;55690;51.566;19.198;2023-06-14T16:43:45;101772.67;;;19.35;92.89
68712;BME280;55690;51.566;19.198;2023-06-14T16:47:52;101767.88;;;19.37;92.38
68712;BME280;55690;51.566;19.198;2023-06-14T16:51:58;101765.55;;;19.71;91.92
68712;BME280;55690;51.566;19.198;2023-06-14T16:56:04;101760.05;;;19.32;93.17
68712;BME280;55690;51.566;19.198;2023-06-14T17:00:11;101769.31;;;19.12;92.90
68712;BME280;55690;51.566;19.198;2023-06-14T17:04:16;101766.55;;;18.92;95.86
68712;BME280;55690;51.566;19.198;2023-06-14T17:08:22;101760.91;;;19.13;94.49
68712;BME280;55690;51.566;19.198;2023-06-14T17:12:30;101759.88;;;18.85;96.51
68712;BME280;55690;51.566;19.198;2023-06-14T17:16:35;101759.02;;;18.94;95.56
68712;BME280;55690;51.566;19.198;2023-06-14T17:20:41;101749.18;;;18.92;95.86
68712;BME280;55690;51.566;19.198;2023-06-14T17:24:47;101753.53;;;19.33;94.26
68712;BME280;55690;51.566;19.198;2023-06-14T17:28:56;101752.21;;;19.08;95.01
68712;BME280;55690;51.566;19.198;2023-06-14T17:32:59;101759.91;;;19.24;93.87
68712;BME280;55690;51.566;19.198;2023-06-14T17:37:06;101758.02;;;18.96;94.07
68712;BME280;55690;51.566;19.198;2023-06-14T17:41:12;101763.37;;;19.07;94.24
68712;BME280;55690;51.566;19.198;2023-06-14T17:45:18;101755.42;;;19.04;95.42
68712;BME280;55690;51.566;19.198;2023-06-14T17:49:24;101760.33;;;19.10;94.94
68712;BME280;55690;51.566;19.198;2023-06-14T17:53:30;101764.25;;;19.36;93.78
68712;BME280;55690;51.566;19.198;2023-06-14T17:57:36;101756.73;;;19.38;93.21
68712;BME280;55690;51.566;19.198;2023-06-14T18:01:43;101755.11;;;19.65;92.16
68712;BME280;55690;51.566;19.198;2023-06-14T18:05:49;101761.51;;;19.36;93.26
68712;BME280;55690;51.566;19.198;2023-06-14T18:09:55;101758.02;;;19.24;93.62
68712;BME280;55690;51.566;19.198;2023-06-14T18:14:02;101762.38;;;19.46;93.45
68712;BME280;55690;51.566;19.198;2023-06-14T18:18:07;101765.26;;;19.16;94.08
68712;BME280;55690;51.566;19.198;2023-06-14T18:22:13;101765.26;;;18.97;94.02
68712;BME280;55690;51.566;19.198;2023-06-14T18:26:24;101764.41;;;19.06;94.42
68712;BME280;55690;51.566;19.198;2023-06-14T18:34:42;101773.59;;;18.66;96.02
68712;BME280;55690;51.566;19.198;2023-06-14T18:38:44;101784.16;;;18.61;95.30
68712;BME280;55690;51.566;19.198;2023-06-14T18:42:47;101795.73;;;18.65;95.57
68712;BME280;55690;51.566;19.198;2023-06-14T18:46:50;101808.06;;;18.60;96.65
68712;BME280;55690;51.566;19.198;2023-06-14T18:50:57;101794.22;;;18.91;95.45
68712;BME280;55690;51.566;19.198;2023-06-14T18:55:03;101797.40;;;18.86;95.96
68712;BME280;55690;51.566;19.198;2023-06-14T18:59:09;101804.58;;;18.68;95.33
68712;BME280;55690;51.566;19.198;2023-06-14T19:03:15;101809.95;;;18.70;95.90
68712;BME280;55690;51.566;19.198;2023-06-14T19:07:21;101813.66;;;18.28;97.29
68712;BME280;55690;51.566;19.198;2023-06-14T19:11:27;101805.77;;;18.75;95.74
68712;BME280;55690;51.566;19.198;2023-06-14T19:15:34;101813.12;;;18.65;95.96
68712;BME280;55690;51.566;19.198;2023-06-14T19:19:40;101810.55;;;18.43;96.45
68712;BME280;55690;51.566;19.198;2023-06-14T19:23:46;101811.32;;;18.54;96.37
68712;BME280;55690;51.566;19.198;2023-06-14T19:27:52;101814.13;;;18.34;97.47
68712;BME280;55690;51.566;19.198;2023-06-14T19:31:58;101812.24;;;18.34;96.96
68712;BME280;55690;51.566;19.198;2023-06-14T19:36:05;101809.84;;;18.81;94.46
68712;BME280;55690;51.566;19.198;2023-06-14T19:40:12;101809.28;;;18.87;94.25
68712;BME280;55690;51.566;19.198;2023-06-14T19:44:17;101806.53;;;18.87;93.83
68712;BME280;55690;51.566;19.198;2023-06-14T19:48:23;101803.78;;;18.87;93.84
68712;BME280;55690;51.566;19.198;2023-06-14T19:52:29;101795.66;;;18.85;94.11
68712;BME280;55690;51.566;19.198;2023-06-14T19:56:35;101791.59;;;18.80;94.05
68712;BME280;55690;51.566;19.198;2023-06-14T20:00:41;101795.35;;;18.79;94.41
68712;BME280;55690;51.566;19.198;2023-06-14T20:04:48;101799.84;;;18.80;94.62
68712;BME280;55690;51.566;19.198;2023-06-14T20:08:54;101796.78;;;18.73;95.17
68712;BME280;55690;51.566;19.198;2023-06-14T20:13:00;101793.02;;;18.74;94.15
68712;BME280;55690;51.566;19.198;2023-06-14T20:17:07;101791.62;;;18.89;93.36
68712;BME280;55690;51.566;19.198;2023-06-14T20:21:12;101799.98;;;18.78;93.73
68712;BME280;55690;51.566;19.198;2023-06-14T20:25:18;101798.62;;;18.63;93.78
68712;BME280;55690;51.566;19.198;2023-06-14T20:29:25;101799.08;;;18.68;93.81
68712;BME280;55690;51.566;19.198;2023-06-14T20:33:31;101795.32;;;18.69;93.77
68712;BME280;55690;51.566;19.198;2023-06-14T20:37:37;101797.09;;;18.80;93.53
68712;BME280;55690;51.566;19.198;2023-06-14T20:41:43;101795.27;;;18.59;93.47
68712;BME280;55690;51.566;19.198;2023-06-14T20:45:49;101786.05;;;18.70;93.25
68712;BME280;55690;51.566;19.198;2023-06-14T20:49:57;101784.76;;;18.74;92.81
68712;BME280;55690;51.566;19.198;2023-06-14T20:54:02;101778.98;;;18.77;92.50
68712;BME280;55690;51.566;19.198;2023-06-14T20:58:08;101788.97;;;18.78;91.66
68712;BME280;55690;51.566;19.198;2023-06-14T21:02:14;101787.06;;;18.69;93.29
68712;BME280;55690;51.566;19.198;2023-06-14T21:06:20;101783.72;;;18.66;93.25
68712;BME280;55690;51.566;19.198;2023-06-14T21:10:26;101778.95;;;18.68;92.88
68712;BME280;55690;51.566;19.198;2023-06-14T21:14:33;101779.79;;;18.58;93.43
68712;BME280;55690;51.566;19.198;2023-06-14T21:18:39;101782.22;;;18.52;93.31
68712;BME280;55690;51.566;19.198;2023-06-14T21:22:45;101779.19;;;18.55;93.69
68712;BME280;55690;51.566;19.198;2023-06-14T21:26:51;101780.93;;;18.56;93.42
68712;BME280;55690;51.566;19.198;2023-06-14T21:30:57;101763.34;;;18.38;93.51
68712;BME280;55690;51.566;19.198;2023-06-14T21:35:04;101788.87;;;18.49;93.84